Weather Data

Pearl Creek Farm: 8878 N Farm Road 75, Walnut Grove MO 65770

<== Previous Day (Saturday 23 Aug 2008) | Next Day (Monday 25 Aug 2008) ==>

Summary Precipitation Data For Sunday 24 August 2008

ElementValueUnits
Precipitation0"
Notes(none)
SourceSpringfield-Branson National Airport (SGF)

Summary Temperature Data For Sunday 24 August 2008

ElementValueUnits
High Temperature86 oF
Low Temperature64 oF
Average Temperature75 oF
High Humidity93 %
Low Humidity43 %
Average Humidity69 %
SourceSpringfield-Branson National Airport (SGF)

Detail Temperature Data For Sunday 24 August 2008

Date / TimeTemp (F)RH (%)Dew Pt (F)Report Date / TimeSource
2008-08-24 05:52:00 70 90 67.0 2017-12-29 19:14:24.89625 Springfield-Branson National Airport (SGF)
2008-08-24 06:52:00 71 87 67.0 2017-12-29 19:14:24.89625 Springfield-Branson National Airport (SGF)
2008-08-24 08:52:00 75 76 67.0 2017-12-29 19:14:24.89625 Springfield-Branson National Airport (SGF)
2008-08-24 09:52:00 78 69 67.0 2017-12-29 19:14:24.89625 Springfield-Branson National Airport (SGF)
2008-08-24 11:52:00 82 60 67.0 2017-12-29 19:14:24.89625 Springfield-Branson National Airport (SGF)
2008-08-24 12:52:00 85 53 66.0 2017-12-29 19:14:24.89625 Springfield-Branson National Airport (SGF)
2008-08-24 13:52:00 86 49 65.0 2017-12-29 19:14:24.89625 Springfield-Branson National Airport (SGF)
2008-08-24 14:52:00 86 48 64.0 2017-12-29 19:14:24.89625 Springfield-Branson National Airport (SGF)
2008-08-24 00:52:00 71 87 67.0 2017-12-29 19:14:24.89625 Springfield-Branson National Airport (SGF)
2008-08-24 01:52:00 68 93 66.0 2017-12-29 19:14:24.89625 Springfield-Branson National Airport (SGF)
2008-08-24 02:52:00 70 90 67.0 2017-12-29 19:14:24.89625 Springfield-Branson National Airport (SGF)
2008-08-24 03:52:00 68 93 66.0 2017-12-29 19:14:24.89625 Springfield-Branson National Airport (SGF)
2008-08-24 04:52:00 69 93 67.0 2017-12-29 19:14:24.89625 Springfield-Branson National Airport (SGF)
2008-08-24 07:52:00 74 79 67.0 2017-12-29 19:14:24.89625 Springfield-Branson National Airport (SGF)
2008-08-24 10:52:00 82 60 67.0 2017-12-29 19:14:24.89625 Springfield-Branson National Airport (SGF)
2008-08-24 15:52:00 85 46 62.0 2017-12-29 19:14:24.89625 Springfield-Branson National Airport (SGF)
2008-08-24 16:52:00 84 43 59.0 2017-12-29 19:14:24.89625 Springfield-Branson National Airport (SGF)
2008-08-24 17:52:00 80 47 58.0 2017-12-29 19:14:24.89625 Springfield-Branson National Airport (SGF)
2008-08-24 18:52:00 76 56 59.0 2017-12-29 19:14:24.89625 Springfield-Branson National Airport (SGF)
2008-08-24 19:52:00 72 61 58.0 2017-12-29 19:14:24.89625 Springfield-Branson National Airport (SGF)
2008-08-24 20:52:00 70 64 57.0 2017-12-29 19:14:24.89625 Springfield-Branson National Airport (SGF)
2008-08-24 21:52:00 67 68 56.0 2017-12-29 19:14:24.89625 Springfield-Branson National Airport (SGF)
2008-08-24 22:52:00 66 70 56.0 2017-12-29 19:14:24.89625 Springfield-Branson National Airport (SGF)
2008-08-24 23:52:00 64 78 57.0 2017-12-29 19:14:24.89625 Springfield-Branson National Airport (SGF)

A total of 24 rows are displayed.